Time;durP1;ratioP1;P1;durP2;ratioP2;P2;SDS_P1;SDS_P2;PMS_P1;PMS_P2;Temp;Humidity;BMP_temperature;BMP_pressure;BME280_temperature;BME280_humidity;BME280_pressure;Samples;Min_cycle;Max_cycle;Signal;HPM_P1;HPM_P2
2022/08/10 00:01:26;;;;;;;1.45;1.30;;;24.20;60.50;;;;;;5110582;28;20270;-70
2022/08/10 00:03:52;;;;;;;1.20;1.10;;;24.20;60.50;;;;;;5094105;28;20195;-70
2022/08/10 00:06:18;;;;;;;1.30;1.30;;;24.20;60.50;;;;;;5112272;28;20176;-70
2022/08/10 00:08:43;;;;;;;1.40;1.33;;;24.20;60.70;;;;;;5111496;28;20270;-70
2022/08/10 00:11:10;;;;;;;1.15;1.13;;;24.10;60.50;;;;;;5094127;28;20191;-70
2022/08/10 00:13:36;;;;;;;1.35;1.30;;;24.10;60.60;;;;;;5094136;28;20314;-70
2022/08/10 00:16:04;;;;;;;1.40;1.30;;;24.10;60.50;;;;;;5112104;28;20195;-70
2022/08/10 00:18:30;;;;;;;1.30;1.20;;;24.10;60.60;;;;;;5093594;28;20192;-70
2022/08/10 00:20:56;;;;;;;1.10;1.10;;;24.20;60.70;;;;;;5107271;28;20209;-70
2022/08/10 00:23:22;;;;;;;1.23;1.13;;;24.10;60.70;;;;;;5057021;28;20223;-70
2022/08/10 00:25:47;;;;;;;1.30;1.20;;;24.10;60.60;;;;;;5076823;28;20325;-71
2022/08/10 00:28:13;;;;;;;1.95;1.10;;;24.20;60.70;;;;;;5111428;28;20200;-70
2022/08/10 00:30:39;;;;;;;1.10;1.10;;;24.10;60.60;;;;;;5076844;28;20604;-71
2022/08/10 00:33:05;;;;;;;1.40;1.30;;;24.10;60.50;;;;;;5076893;28;20272;-71
2022/08/10 00:35:31;;;;;;;1.10;1.10;;;24.20;60.60;;;;;;5093959;28;20187;-71
2022/08/10 00:37:56;;;;;;;1.08;1.08;;;24.20;60.70;;;;;;5111495;28;20196;-70
2022/08/10 00:40:22;;;;;;;1.17;1.08;;;24.10;60.60;;;;;;5093979;28;20180;-70
2022/08/10 00:42:48;;;;;;;1.10;1.00;;;24.10;60.60;;;;;;5112178;28;20659;-70
2022/08/10 00:45:14;;;;;;;1.20;1.20;;;24.10;60.50;;;;;;5111923;28;20176;-70
2022/08/10 00:47:40;;;;;;;1.25;1.25;;;24.10;60.50;;;;;;5093062;28;20200;-70
2022/08/10 00:50:07;;;;;;;1.35;1.25;;;24.10;60.50;;;;;;5093864;28;20245;-70
2022/08/10 00:52:35;;;;;;;1.10;1.10;;;24.10;60.50;;;;;;5110643;28;20172;-72
2022/08/10 00:55:02;;;;;;;2.45;1.00;;;24.10;60.60;;;;;;5093724;28;20238;-71
2022/08/10 00:57:28;;;;;;;1.30;1.20;;;24.10;60.60;;;;;;5093017;28;20215;-70
2022/08/10 00:59:54;;;;;;;1.40;1.30;;;24.10;60.50;;;;;;5093341;28;20180;-70
2022/08/10 01:02:20;;;;;;;1.38;1.27;;;24.10;60.50;;;;;;5077066;28;20659;-70
2022/08/10 01:04:47;;;;;;;1.40;1.30;;;24.10;60.60;;;;;;5077058;28;20211;-70
2022/08/10 01:07:35;;;;;;;1.27;1.25;;;24.10;60.70;;;;;;5094655;28;20595;-70
2022/08/10 01:10:11;;;;;;;1.30;1.23;;;24.10;60.60;;;;;;5097379;28;20265;-70
2022/08/10 01:13:00;;;;;;;1.20;1.20;;;24.10;60.70;;;;;;5114564;28;20191;-70
2022/08/10 01:15:33;;;;;;;1.30;1.20;;;24.10;60.70;;;;;;5115397;28;20212;-70
2022/08/10 01:18:12;;;;;;;1.60;1.13;;;24.10;60.50;;;;;;5096519;28;20348;-70
2022/08/10 01:20:46;;;;;;;1.40;1.30;;;24.10;60.50;;;;;;5080412;28;20752;-70
2022/08/10 01:23:48;;;;;;;1.60;1.50;;;24.10;60.60;;;;;;5115371;28;20219;-70
2022/08/10 01:27:06;;;;;;;1.10;1.10;;;24.10;60.70;;;;;;5115292;28;20180;-70
2022/08/10 01:29:55;;;;;;;0.90;0.90;;;24.10;60.70;;;;;;5115143;28;20176;-70
2022/08/10 01:32:53;;;;;;;1.38;1.27;;;24.10;60.60;;;;;;5113930;28;20184;-70
2022/08/10 01:35:42;;;;;;;1.30;1.20;;;24.10;60.70;;;;;;5096870;28;20780;-70
2022/08/10 01:38:23;;;;;;;1.33;1.20;;;24.10;60.70;;;;;;5096236;28;20212;-71
2022/08/10 01:41:22;;;;;;;1.00;1.00;;;24.10;60.70;;;;;;5113905;28;20183;-70
2022/08/10 01:44:11;;;;;;;1.60;1.50;;;24.10;60.70;;;;;;5079697;28;20226;-72
2022/08/10 01:46:46;;;;;;;1.15;1.15;;;24.10;60.70;;;;;;5096950;28;20206;-70
2022/08/10 01:49:16;;;;;;;1.30;1.30;;;24.10;60.70;;;;;;5097377;28;20274;-70
2022/08/10 01:51:50;;;;;;;1.88;1.10;;;24.10;60.70;;;;;;5096575;28;20230;-70
2022/08/10 01:54:21;;;;;;;1.38;1.30;;;24.10;60.70;;;;;;5079827;28;20216;-70
2022/08/10 01:56:52;;;;;;;1.27;1.23;;;24.10;60.80;;;;;;5095942;28;20180;-71
2022/08/10 01:59:29;;;;;;;1.10;1.10;;;24.10;60.80;;;;;;5096041;28;20244;-70
2022/08/10 02:02:05;;;;;;;1.40;1.30;;;24.10;60.80;;;;;;5096460;28;20180;-70
2022/08/10 02:04:36;;;;;;;1.42;1.33;;;24.10;60.70;;;;;;5079641;28;20188;-70
2022/08/10 02:07:05;;;;;;;1.10;1.10;;;24.10;60.70;;;;;;5112651;28;20207;-70
2022/08/10 02:09:35;;;;;;;1.92;1.20;;;24.10;60.70;;;;;;5096163;28;20180;-70
2022/08/10 02:12:09;;;;;;;1.30;1.23;;;24.10;60.80;;;;;;5114292;28;20195;-70
2022/08/10 02:14:45;;;;;;;1.30;1.30;;;24.10;60.80;;;;;;5096194;28;20216;-70
2022/08/10 02:17:18;;;;;;;1.38;1.30;;;24.10;60.80;;;;;;5095492;28;20200;-70
2022/08/10 02:19:46;;;;;;;1.60;1.50;;;24.10;60.80;;;;;;5109192;28;20263;-70
2022/08/10 02:22:15;;;;;;;1.50;1.40;;;24.10;60.90;;;;;;5065248;28;20176;-70
2022/08/10 02:24:43;;;;;;;1.15;1.15;;;24.10;60.80;;;;;;5114009;28;20180;-70
2022/08/10 02:27:11;;;;;;;1.42;1.33;;;24.10;60.80;;;;;;5112176;28;20246;-70
2022/08/10 02:29:39;;;;;;;1.30;1.20;;;24.10;60.90;;;;;;5112941;28;20187;-70
2022/08/10 02:32:08;;;;;;;1.50;1.40;;;24.00;60.70;;;;;;5110806;28;20245;-71
2022/08/10 02:34:36;;;;;;;1.30;1.25;;;24.00;60.70;;;;;;5120941;27;20208;-70
2022/08/10 02:37:04;;;;;;;1.35;1.30;;;24.00;60.60;;;;;;5111900;28;20208;-70
2022/08/10 02:39:32;;;;;;;1.10;1.10;;;24.10;60.80;;;;;;5095650;28;20249;-70
2022/08/10 02:42:10;;;;;;;1.60;1.50;;;24.10;60.80;;;;;;5095390;28;20671;-70
2022/08/10 02:45:02;;;;;;;1.40;1.30;;;24.10;60.70;;;;;;5113730;28;20179;-70
2022/08/10 02:47:46;;;;;;;1.33;1.30;;;24.10;60.80;;;;;;5112982;28;20246;-70
2022/08/10 02:50:33;;;;;;;1.50;1.40;;;24.00;60.80;;;;;;5112285;28;20223;-70
2022/08/10 02:53:10;;;;;;;1.70;1.60;;;24.10;60.90;;;;;;5112418;28;20286;-70
2022/08/10 02:55:47;;;;;;;1.40;1.30;;;24.00;60.80;;;;;;5095041;28;20278;-70
2022/08/10 02:59:16;;;;;;;1.20;1.20;;;24.00;60.80;;;;;;5112773;28;20196;-70
2022/08/10 03:01:48;;;;;;;1.33;1.30;;;24.00;60.70;;;;;;5032971;28;20187;-70
2022/08/10 03:04:22;;;;;;;1.60;1.50;;;24.00;60.80;;;;;;5095372;28;20191;-70
2022/08/10 03:07:03;;;;;;;1.73;1.60;;;24.00;60.90;;;;;;5113166;28;20214;-70
2022/08/10 03:09:33;;;;;;;1.50;1.40;;;24.00;60.80;;;;;;5095067;28;20183;-70
2022/08/10 03:12:00;;;;;;;1.30;1.30;;;24.00;60.80;;;;;;5094720;28;20199;-70
2022/08/10 03:14:29;;;;;;;1.20;1.10;;;24.00;60.70;;;;;;5095224;28;20622;-70
2022/08/10 03:16:57;;;;;;;1.23;1.17;;;24.00;60.70;;;;;;5111392;28;20173;-70
2022/08/10 03:19:28;;;;;;;1.73;1.63;;;24.00;60.70;;;;;;5111998;28;20271;-70
2022/08/10 03:21:54;;;;;;;1.20;1.20;;;24.00;60.60;;;;;;5113093;28;20248;-70
2022/08/10 03:24:24;;;;;;;1.33;1.23;;;24.00;60.70;;;;;;5094794;28;20733;-70
2022/08/10 03:26:52;;;;;;;1.98;1.55;;;24.00;60.80;;;;;;5112784;28;20180;-70
2022/08/10 03:29:21;;;;;;;1.20;1.20;;;24.00;60.70;;;;;;5110711;28;20182;-70
2022/08/10 03:31:49;;;;;;;1.40;1.30;;;24.00;60.70;;;;;;5111583;28;20299;-70
2022/08/10 03:34:18;;;;;;;1.25;1.25;;;24.00;60.80;;;;;;5094574;28;20245;-70
2022/08/10 03:36:44;;;;;;;1.30;1.20;;;24.00;61.60;;;;;;5094632;28;20183;-70
2022/08/10 03:39:12;;;;;;;1.20;1.20;;;24.00;60.80;;;;;;5077165;28;20180;-70
2022/08/10 03:41:48;;;;;;;1.40;1.30;;;24.00;60.80;;;;;;5094486;28;20188;-70
2022/08/10 03:44:22;;;;;;;1.40;1.30;;;24.00;60.80;;;;;;5112435;28;20187;-70
2022/08/10 03:46:50;;;;;;;1.25;1.25;;;24.00;60.80;;;;;;5112692;28;20685;-70
2022/08/10 03:49:19;;;;;;;1.42;1.33;;;24.00;60.80;;;;;;5093790;28;20554;-70
2022/08/10 03:51:48;;;;;;;1.42;1.33;;;24.00;60.80;;;;;;5077820;28;20270;-70
2022/08/10 03:54:18;;;;;;;1.40;1.35;;;24.00;60.70;;;;;;5094360;28;20234;-70
2022/08/10 03:56:44;;;;;;;1.60;1.50;;;24.00;60.80;;;;;;5094264;28;20214;-70
2022/08/10 03:59:14;;;;;;;1.30;1.30;;;23.90;60.70;;;;;;5093701;28;20190;-70
2022/08/10 04:01:44;;;;;;;1.08;1.08;;;24.00;60.80;;;;;;5093972;28;20180;-70
2022/08/10 04:04:12;;;;;;;1.60;1.50;;;24.00;60.90;;;;;;5094271;28;20184;-70
2022/08/10 04:06:38;;;;;;;1.27;1.20;;;24.00;60.80;;;;;;5094336;28;20191;-70
2022/08/10 04:09:04;;;;;;;1.48;1.38;;;23.90;60.70;;;;;;5076527;28;20651;-70
2022/08/10 04:11:30;;;;;;;1.50;1.40;;;24.00;60.90;;;;;;5112275;28;20168;-70
2022/08/10 04:13:56;;;;;;;1.55;1.45;;;23.90;60.80;;;;;;5077313;28;20207;-70
2022/08/10 04:16:22;;;;;;;1.50;1.40;;;23.90;60.90;;;;;;5093630;28;20180;-70
2022/08/10 04:18:47;;;;;;;1.23;1.23;;;23.90;60.90;;;;;;5093327;28;20293;-71
2022/08/10 04:21:23;;;;;;;1.52;1.42;;;24.00;61.00;;;;;;5094086;28;20176;-70
2022/08/10 04:23:51;;;;;;;1.35;1.30;;;23.90;60.90;;;;;;5112225;28;20236;-70
2022/08/10 04:26:17;;;;;;;1.20;1.20;;;23.90;60.90;;;;;;5076522;28;20243;-70
2022/08/10 04:28:43;;;;;;;1.40;1.30;;;24.00;60.90;;;;;;5093151;28;20625;-70
2022/08/10 04:31:14;;;;;;;1.50;1.40;;;23.90;60.70;;;;;;5093923;28;20263;-70
2022/08/10 04:33:48;;;;;;;1.60;1.50;;;24.00;60.80;;;;;;5093901;28;20242;-70
2022/08/10 04:36:17;;;;;;;1.27;1.27;;;23.90;60.70;;;;;;5093957;28;20200;-70
2022/08/10 04:38:47;;;;;;;1.40;1.40;;;23.90;60.70;;;;;;5093266;28;20237;-70
2022/08/10 04:41:13;;;;;;;1.25;1.25;;;23.90;60.70;;;;;;5094212;28;20181;-70
2022/08/10 04:43:39;;;;;;;1.27;1.17;;;23.90;60.70;;;;;;5116355;28;20184;-70
2022/08/10 04:46:05;;;;;;;1.30;1.20;;;23.90;60.70;;;;;;5115937;28;20172;-70
2022/08/10 04:48:30;;;;;;;1.50;1.40;;;23.90;60.80;;;;;;5115474;28;20235;-70
2022/08/10 04:50:56;;;;;;;1.52;1.42;;;23.90;60.70;;;;;;5097700;28;20193;-70
2022/08/10 04:53:22;;;;;;;1.38;1.38;;;23.90;60.70;;;;;;5115891;28;20212;-70
2022/08/10 04:55:48;;;;;;;1.67;1.58;;;23.90;60.70;;;;;;5080534;28;20188;-71
2022/08/10 04:58:14;;;;;;;1.20;1.20;;;23.90;60.70;;;;;;5115356;28;20211;-71
2022/08/10 05:00:39;;;;;;;1.40;1.30;;;23.90;60.80;;;;;;5115442;28;20180;-70
2022/08/10 05:03:06;;;;;;;1.20;1.20;;;23.90;60.90;;;;;;5115725;28;20229;-71
2022/08/10 05:05:32;;;;;;;1.60;1.50;;;23.90;60.80;;;;;;5080587;28;20176;-70
2022/08/10 05:07:57;;;;;;;1.38;1.20;;;23.90;60.90;;;;;;5096658;28;20238;-70
2022/08/10 05:10:23;;;;;;;1.60;1.50;;;23.90;60.80;;;;;;5097381;28;20173;-70
2022/08/10 05:12:49;;;;;;;1.60;1.50;;;23.90;60.80;;;;;;5114231;28;20191;-70
2022/08/10 05:15:17;;;;;;;1.48;1.38;;;23.90;60.90;;;;;;5097354;28;20442;-70
2022/08/10 05:17:45;;;;;;;1.33;1.23;;;23.90;61.00;;;;;;5096487;28;20634;-70
2022/08/10 05:20:12;;;;;;;1.40;1.30;;;23.90;65.00;;;;;;5114023;28;20184;-70
2022/08/10 05:22:43;;;;;;;1.40;1.30;;;23.90;60.20;;;;;;5115452;28;20176;-70
2022/08/10 05:25:18;;;;;;;1.40;1.30;;;23.90;60.70;;;;;;5115318;28;20172;-70
2022/08/10 05:27:46;;;;;;;1.33;1.23;;;23.90;60.70;;;;;;5113314;28;20199;-70
2022/08/10 05:30:17;;;;;;;1.48;1.38;;;23.90;60.70;;;;;;5096990;28;20176;-70
2022/08/10 05:32:44;;;;;;;1.33;1.23;;;23.90;60.70;;;;;;5115216;28;20176;-71
2022/08/10 05:35:10;;;;;;;1.45;1.40;;;23.90;60.70;;;;;;5079881;28;20299;-70
2022/08/10 05:37:37;;;;;;;1.73;1.40;;;23.90;60.70;;;;;;5096068;28;20258;-70
2022/08/10 05:40:06;;;;;;;1.52;1.50;;;23.90;60.70;;;;;;5097195;28;20207;-70
2022/08/10 05:42:32;;;;;;;1.13;1.13;;;23.90;60.90;;;;;;5096611;28;20184;-70
2022/08/10 05:44:58;;;;;;;1.38;1.35;;;23.90;60.80;;;;;;5096371;28;20198;-70
2022/08/10 05:47:25;;;;;;;1.48;1.35;;;23.90;60.90;;;;;;5114417;28;20200;-70
2022/08/10 05:49:54;;;;;;;1.67;1.58;;;23.90;61.00;;;;;;5096672;28;20180;-70
2022/08/10 05:52:21;;;;;;;1.15;1.15;;;23.90;60.80;;;;;;5079375;28;20199;-70
2022/08/10 05:54:49;;;;;;;1.40;1.30;;;23.90;60.90;;;;;;5096581;28;20223;-71
2022/08/10 05:57:18;;;;;;;1.50;1.40;;;23.90;60.80;;;;;;5078922;28;20196;-71
2022/08/10 05:59:53;;;;;;;1.30;1.30;;;23.80;60.70;;;;;;5114154;28;20203;-70
2022/08/10 06:02:35;;;;;;;1.50;1.40;;;23.90;60.70;;;;;;5096715;28;20180;-70
2022/08/10 06:05:12;;;;;;;1.40;1.30;;;23.90;60.70;;;;;;5113361;28;20191;-70
2022/08/10 06:07:58;;;;;;;1.13;1.13;;;23.80;60.60;;;;;;5113720;28;20208;-70
2022/08/10 06:10:27;;;;;;;1.20;1.20;;;23.90;60.70;;;;;;5113355;28;20674;-70
2022/08/10 06:15:44;;;;;;;1.40;1.30;;;23.90;60.90;;;;;;5114240;28;20206;-70
2022/08/10 06:18:14;;;;;;;1.65;1.30;;;23.80;60.80;;;;;;5095253;28;20200;-70
2022/08/10 06:20:41;;;;;;;1.50;1.40;;;23.90;60.80;;;;;;5095903;28;20289;-70
2022/08/10 06:23:08;;;;;;;1.50;1.40;;;23.80;60.80;;;;;;5091942;28;20223;-70
2022/08/10 06:25:34;;;;;;;1.45;1.35;;;23.80;61.60;;;;;;5075701;28;20173;-70
2022/08/10 06:28:01;;;;;;;1.20;1.20;;;23.90;60.90;;;;;;5058399;28;20200;-70
2022/08/10 06:30:29;;;;;;;1.40;1.30;;;23.80;60.70;;;;;;5091344;28;20180;-70
2022/08/10 06:32:59;;;;;;;1.40;1.30;;;23.90;60.80;;;;;;5095825;28;20211;-72
2022/08/10 06:35:31;;;;;;;1.50;1.40;;;23.80;60.60;;;;;;5095989;28;20688;-70
2022/08/10 06:38:01;;;;;;;1.40;1.30;;;23.90;60.70;;;;;;5095099;28;20227;-70
2022/08/10 06:40:33;;;;;;;1.33;1.30;;;23.90;60.80;;;;;;5079162;28;20176;-70
2022/08/10 06:43:01;;;;;;;1.40;1.30;;;23.80;60.70;;;;;;5095612;28;20188;-70
2022/08/10 06:45:38;;;;;;;1.38;1.27;;;23.80;60.70;;;;;;5095375;28;20186;-70
2022/08/10 06:48:48;;;;;;;1.48;1.38;;;23.80;60.80;;;;;;5094864;28;20261;-71
2022/08/10 06:51:23;;;;;;;1.63;1.40;;;23.80;60.80;;;;;;5067131;28;20207;-70
2022/08/10 06:53:55;;;;;;;1.52;1.42;;;23.80;60.70;;;;;;5113608;28;20215;-70
2022/08/10 06:56:28;;;;;;;1.40;1.30;;;23.90;60.80;;;;;;5095472;28;20184;-70
2022/08/10 06:59:05;;;;;;;1.40;1.30;;;23.80;60.60;;;;;;5077805;28;20195;-70
2022/08/10 07:01:35;;;;;;;1.30;1.30;;;23.90;60.70;;;;;;5094677;28;20233;-70
2022/08/10 07:04:17;;;;;;;1.20;1.20;;;23.80;61.50;;;;;;5094531;28;20199;-70
2022/08/10 07:06:48;;;;;;;1.23;1.20;;;23.80;60.80;;;;;;5094783;28;20263;-70
2022/08/10 07:09:16;;;;;;;1.48;1.38;;;23.80;60.80;;;;;;5077577;28;20216;-70
2022/08/10 07:11:50;;;;;;;1.10;1.10;;;23.80;60.80;;;;;;5112046;28;20281;-70
2022/08/10 07:14:18;;;;;;;1.20;1.10;;;23.90;60.90;;;;;;5094905;28;20708;-70
2022/08/10 07:16:46;;;;;;;1.63;1.52;;;23.80;60.80;;;;;;5111798;28;20295;-70
2022/08/10 07:19:14;;;;;;;1.92;1.30;;;23.80;60.80;;;;;;5111735;28;20720;-70
2022/08/10 07:21:44;;;;;;;1.38;1.27;;;23.80;60.80;;;;;;5094853;28;20183;-70
2022/08/10 07:24:13;;;;;;;1.60;1.50;;;23.80;60.80;;;;;;5094858;28;20191;-70
2022/08/10 07:26:48;;;;;;;1.30;1.30;;;23.80;60.80;;;;;;5112866;28;20198;-70
2022/08/10 07:29:18;;;;;;;1.35;1.30;;;23.90;60.80;;;;;;5077387;28;20183;-70
2022/08/10 07:31:48;;;;;;;1.50;1.40;;;23.80;60.90;;;;;;5077799;28;20184;-70
2022/08/10 07:34:18;;;;;;;1.30;1.30;;;23.80;60.80;;;;;;5112786;28;20279;-70
2022/08/10 07:36:46;;;;;;;1.30;1.20;;;23.90;60.30;;;;;;5094512;28;20270;-70
2022/08/10 07:39:13;;;;;;;1.30;1.20;;;23.80;60.80;;;;;;5076953;28;20229;-70
2022/08/10 07:41:45;;;;;;;1.25;1.15;;;23.90;60.90;;;;;;5112785;28;20218;-70
2022/08/10 07:44:13;;;;;;;1.42;1.30;;;23.80;60.90;;;;;;5094795;28;20195;-71
2022/08/10 07:46:48;;;;;;;1.42;1.33;;;23.80;60.90;;;;;;5112590;28;20219;-70
2022/08/10 07:49:21;;;;;;;1.23;1.15;;;23.80;60.70;;;;;;5077140;28;20191;-70
2022/08/10 07:51:55;;;;;;;1.20;1.20;;;23.90;60.90;;;;;;5094393;28;20230;-70
2022/08/10 07:54:24;;;;;;;1.65;1.55;;;23.80;60.80;;;;;;5112113;28;20212;-70
2022/08/10 07:56:58;;;;;;;1.90;1.27;;;23.90;60.90;;;;;;5093945;28;20239;-70
2022/08/10 07:59:40;;;;;;;1.38;1.27;;;23.90;60.70;;;;;;5111551;28;20289;-70
2022/08/10 08:02:19;;;;;;;1.38;1.27;;;23.90;60.30;;;;;;5112537;28;20182;-71
2022/08/10 08:04:47;;;;;;;1.38;1.30;;;23.90;60.30;;;;;;5094186;28;20191;-70
2022/08/10 08:07:14;;;;;;;1.40;1.30;;;24.00;60.40;;;;;;5093915;28;20287;-70
2022/08/10 08:09:40;;;;;;;1.48;1.13;;;24.00;60.30;;;;;;5076923;28;20645;-70
2022/08/10 08:12:08;;;;;;;1.42;1.35;;;24.00;60.20;;;;;;5111301;28;20215;-70
2022/08/10 08:14:35;;;;;;;1.52;1.30;;;24.10;60.40;;;;;;5111820;28;20212;-70
2022/08/10 08:17:01;;;;;;;1.27;1.20;;;24.10;60.30;;;;;;5117015;28;20294;-70
2022/08/10 08:19:29;;;;;;;1.25;1.13;;;24.10;60.30;;;;;;5118659;28;20271;-70
2022/08/10 08:21:57;;;;;;;1.50;1.40;;;24.10;60.20;;;;;;5117942;28;20215;-70
2022/08/10 08:24:24;;;;;;;1.48;1.38;;;24.10;60.10;;;;;;5118940;28;20262;-70
2022/08/10 08:26:52;;;;;;;1.33;1.25;;;24.10;60.10;;;;;;5117573;28;20191;-71
2022/08/10 08:29:20;;;;;;;1.10;1.10;;;24.10;60.20;;;;;;5099717;28;20179;-70
2022/08/10 08:31:48;;;;;;;1.60;1.50;;;24.10;59.80;;;;;;5100788;28;20558;-70
2022/08/10 08:34:17;;;;;;;1.50;1.40;;;24.10;60.10;;;;;;5118772;28;20191;-70
2022/08/10 08:36:45;;;;;;;1.25;1.15;;;24.10;59.80;;;;;;5100707;28;20191;-70
2022/08/10 08:39:11;;;;;;;1.20;1.10;;;24.20;59.90;;;;;;5118309;28;20229;-70
2022/08/10 08:41:50;;;;;;;1.55;1.30;;;24.20;59.90;;;;;;5119121;28;20191;-70
2022/08/10 08:44:56;;;;;;;1.38;1.20;;;24.20;60.00;;;;;;5100513;28;20726;-70
2022/08/10 08:47:57;;;;;;;1.40;1.30;;;24.20;60.20;;;;;;5100391;28;20246;-70
2022/08/10 08:50:44;;;;;;;1.33;1.23;;;24.20;60.40;;;;;;5100729;28;20271;-70
2022/08/10 08:53:31;;;;;;;1.50;1.40;;;24.30;60.30;;;;;;5100571;28;20262;-70
2022/08/10 08:56:13;;;;;;;1.25;1.17;;;24.20;59.90;;;;;;5117725;28;20183;-70
2022/08/10 08:59:05;;;;;;;1.45;1.20;;;24.30;60.30;;;;;;5118325;28;20210;-70
2022/08/10 09:01:59;;;;;;;1.30;1.20;;;24.30;60.40;;;;;;5118203;28;20191;-70
2022/08/10 09:05:05;;;;;;;1.27;1.25;;;24.30;60.40;;;;;;5100692;28;20245;-70
2022/08/10 09:08:16;;;;;;;1.30;1.20;;;24.30;60.20;;;;;;5099620;28;20219;-70
2022/08/10 09:10:57;;;;;;;1.23;1.13;;;24.30;60.00;;;;;;5117390;28;20213;-70
2022/08/10 09:13:38;;;;;;;1.20;1.20;;;24.30;60.30;;;;;;5117363;28;20254;-70
2022/08/10 09:16:28;;;;;;;1.42;1.33;;;24.30;60.50;;;;;;5101186;28;20176;-71
2022/08/10 09:19:12;;;;;;;1.30;1.20;;;24.30;60.30;;;;;;5099754;28;20212;-71
2022/08/10 09:22:17;;;;;;;1.10;1.10;;;24.30;60.30;;;;;;5100419;28;20598;-71
2022/08/10 09:25:06;;;;;;;1.40;1.30;;;24.30;60.20;;;;;;5100206;28;20227;-70
2022/08/10 09:27:46;;;;;;;1.25;1.25;;;24.30;60.50;;;;;;5097240;28;20211;-69
2022/08/10 09:30:21;;;;;;;1.08;1.08;;;24.30;60.40;;;;;;5097010;28;20183;-70
2022/08/10 09:32:59;;;;;;;1.25;1.23;;;24.30;60.50;;;;;;5115026;28;20180;-70
2022/08/10 09:35:53;;;;;;;1.10;1.00;;;24.30;60.20;;;;;;5115405;28;20192;-70
2022/08/10 09:38:41;;;;;;;1.30;1.20;;;24.30;60.40;;;;;;5096412;28;20204;-71
2022/08/10 09:41:40;;;;;;;1.00;1.00;;;24.30;59.90;;;;;;5113775;28;20240;-70
2022/08/10 09:44:30;;;;;;;1.25;1.15;;;24.30;60.20;;;;;;5096910;28;20180;-70
2022/08/10 09:47:40;;;;;;;1.15;1.15;;;24.30;60.30;;;;;;5096167;28;20184;-70
2022/08/10 09:50:21;;;;;;;1.13;1.10;;;24.30;60.20;;;;;;5096685;28;20183;-70
2022/08/10 09:53:19;;;;;;;1.20;1.10;;;24.30;59.80;;;;;;5079687;28;20278;-70
2022/08/10 09:56:30;;;;;;;1.30;1.20;;;24.30;60.10;;;;;;5079606;28;20208;-70
2022/08/10 09:59:27;;;;;;;1.40;1.30;;;24.30;60.00;;;;;;5095890;28;20223;-70
2022/08/10 10:02:13;;;;;;;1.00;1.00;;;24.30;59.60;;;;;;5096358;28;20176;-70
2022/08/10 10:04:53;;;;;;;1.95;1.23;;;24.30;59.50;;;;;;5096301;28;20271;-71
2022/08/10 10:07:28;;;;;;;1.20;1.00;;;24.30;59.60;;;;;;5114319;28;20283;-72
2022/08/10 10:10:13;;;;;;;1.30;1.20;;;24.40;59.90;;;;;;5113803;28;20186;-70
2022/08/10 10:12:58;;;;;;;1.17;1.10;;;24.30;59.70;;;;;;5114460;28;20229;-71
2022/08/10 10:15:51;;;;;;;1.08;0.90;;;24.30;59.80;;;;;;5096081;28;20295;-70
2022/08/10 10:19:09;;;;;;;1.05;1.05;;;24.30;59.50;;;;;;5095366;28;20218;-70
2022/08/10 10:21:49;;;;;;;1.13;1.02;;;24.30;60.10;;;;;;5092183;28;20242;-71
2022/08/10 10:24:29;;;;;;;1.30;1.20;;;24.30;60.00;;;;;;5093866;28;20272;-70
2022/08/10 10:27:09;;;;;;;1.10;1.05;;;24.30;59.50;;;;;;5075586;28;20220;-70
2022/08/10 10:30:03;;;;;;;1.23;1.20;;;24.30;59.50;;;;;;5058719;28;20169;-70
2022/08/10 10:32:35;;;;;;;1.15;1.15;;;24.30;59.50;;;;;;5075975;28;20234;-71
2022/08/10 10:35:18;;;;;;;1.00;1.00;;;24.40;59.70;;;;;;5075394;28;20232;-70
2022/08/10 10:37:46;;;;;;;1.40;1.30;;;24.40;59.60;;;;;;5058947;28;20281;-70
2022/08/10 10:40:16;;;;;;;1.33;1.10;;;24.40;59.60;;;;;;5091238;28;20644;-70
2022/08/10 10:43:09;;;;;;;1.17;1.17;;;24.40;59.60;;;;;;5075392;28;20192;-70
2022/08/10 10:46:05;;;;;;;1.30;1.25;;;24.40;59.60;;;;;;5093336;28;20209;-70
2022/08/10 10:49:02;;;;;;;1.08;1.00;;;24.30;59.50;;;;;;5092819;28;20197;-71
2022/08/10 10:51:43;;;;;;;1.00;1.00;;;24.40;59.60;;;;;;5075194;28;20185;-70
2022/08/10 10:54:28;;;;;;;1.42;1.33;;;24.30;59.50;;;;;;5075125;28;20814;-70
2022/08/10 10:57:05;;;;;;;1.65;1.30;;;24.30;59.50;;;;;;5092007;28;20181;-70
2022/08/10 11:00:10;;;;;;;1.55;1.45;;;24.40;59.60;;;;;;5074013;28;20194;-71
2022/08/10 11:03:34;;;;;;;1.10;1.10;;;24.40;60.40;;;;;;5092153;28;20185;-70
2022/08/10 11:06:12;;;;;;;1.25;1.10;;;24.30;59.80;;;;;;5093202;28;20189;-70
2022/08/10 11:08:47;;;;;;;1.10;1.10;;;24.40;59.60;;;;;;5074226;28;20232;-71
2022/08/10 11:11:22;;;;;;;1.67;1.20;;;24.40;59.60;;;;;;5075254;28;20184;-70
2022/08/10 11:14:30;;;;;;;1.27;1.23;;;24.40;59.60;;;;;;5057984;28;20215;-70
2022/08/10 11:17:19;;;;;;;1.38;1.27;;;24.40;59.40;;;;;;5092887;28;20177;-70
2022/08/10 11:20:01;;;;;;;1.40;1.30;;;24.40;59.60;;;;;;5074145;28;20192;-70
2022/08/10 11:22:34;;;;;;;1.27;1.17;;;24.40;59.60;;;;;;5074548;28;20222;-71
2022/08/10 11:25:19;;;;;;;1.40;1.30;;;24.40;59.60;;;;;;5074636;28;20185;-70
2022/08/10 11:28:15;;;;;;;1.20;1.10;;;24.40;59.50;;;;;;5073896;28;20212;-70
2022/08/10 11:30:57;;;;;;;0.93;0.93;;;24.40;59.40;;;;;;5057732;28;20185;-70
2022/08/10 11:33:39;;;;;;;1.30;1.20;;;24.40;59.60;;;;;;5091236;28;20250;-70
2022/08/10 11:36:26;;;;;;;1.08;1.00;;;24.40;59.50;;;;;;5074378;28;20538;-71
2022/08/10 11:39:24;;;;;;;1.40;1.25;;;24.40;59.40;;;;;;5073851;28;20559;-71
2022/08/10 11:42:01;;;;;;;1.67;1.35;;;24.40;59.60;;;;;;5074395;28;20192;-70
2022/08/10 11:44:38;;;;;;;1.55;1.23;;;24.40;59.30;;;;;;5092409;28;20205;-70
2022/08/10 11:47:13;;;;;;;1.38;1.27;;;24.40;59.30;;;;;;5092217;28;20200;-70
2022/08/10 11:50:06;;;;;;;1.45;1.05;;;24.40;59.40;;;;;;5073532;28;20289;-70
2022/08/10 11:53:14;;;;;;;1.13;1.13;;;24.40;59.60;;;;;;5072941;28;20189;-70
2022/08/10 11:55:48;;;;;;;1.15;1.10;;;24.40;59.50;;;;;;5073987;28;20196;-70
2022/08/10 12:01:06;;;;;;;1.17;1.10;;;24.40;59.30;;;;;;5073660;28;20187;-70
2022/08/10 12:03:36;;;;;;;1.40;1.30;;;24.40;59.30;;;;;;5073931;28;20625;-70
2022/08/10 12:06:08;;;;;;;1.30;1.20;;;24.40;59.30;;;;;;5090862;28;20241;-70
2022/08/10 12:08:35;;;;;;;1.10;1.00;;;24.40;59.40;;;;;;5073168;28;20696;-70
2022/08/10 12:11:01;;;;;;;1.23;1.15;;;24.40;59.60;;;;;;5074060;28;20189;-70
2022/08/10 12:13:58;;;;;;;1.00;0.98;;;24.40;59.40;;;;;;5090631;28;20205;-70
2022/08/10 12:16:28;;;;;;;1.08;1.08;;;24.40;59.40;;;;;;5073974;28;20181;-70
2022/08/10 12:19:09;;;;;;;1.00;1.00;;;24.40;59.10;;;;;;5073373;28;20223;-70
2022/08/10 12:21:56;;;;;;;1.20;1.10;;;24.40;59.10;;;;;;5090918;28;20223;-71
2022/08/10 12:24:57;;;;;;;1.25;1.15;;;24.40;59.10;;;;;;5073801;28;20185;-70
2022/08/10 12:27:50;;;;;;;1.30;1.17;;;24.40;59.20;;;;;;5093350;28;20230;-70
2022/08/10 12:30:28;;;;;;;1.23;1.23;;;24.40;59.30;;;;;;5090858;28;20229;-70
2022/08/10 12:33:02;;;;;;;1.40;1.30;;;24.40;59.40;;;;;;5093770;28;20183;-70
2022/08/10 12:35:56;;;;;;;1.25;1.15;;;24.40;58.90;;;;;;5110799;28;20207;-71
2022/08/10 12:38:55;;;;;;;1.20;1.10;;;24.40;59.20;;;;;;5110364;28;20253;-70
2022/08/10 12:41:36;;;;;;;1.67;1.50;;;24.40;59.00;;;;;;5112140;28;20983;-70
2022/08/10 12:44:13;;;;;;;1.15;1.15;;;24.40;59.30;;;;;;5093751;28;20270;-70
2022/08/10 12:46:57;;;;;;;1.50;1.25;;;24.40;59.40;;;;;;5093890;28;20183;-70
2022/08/10 12:49:31;;;;;;;1.30;1.20;;;24.40;59.10;;;;;;5111316;28;20708;-70
2022/08/10 12:52:27;;;;;;;1.48;1.38;;;24.40;59.40;;;;;;5093913;28;20184;-71
2022/08/10 12:54:58;;;;;;;1.30;1.20;;;24.40;59.00;;;;;;5110517;28;20661;-71
2022/08/10 12:57:26;;;;;;;1.33;1.23;;;24.40;59.00;;;;;;5093768;28;20249;-70
2022/08/10 12:59:59;;;;;;;1.40;1.30;;;24.40;59.10;;;;;;5075779;28;20240;-70
2022/08/10 13:02:32;;;;;;;1.27;1.10;;;24.40;59.20;;;;;;5112862;28;20191;-70
2022/08/10 13:05:05;;;;;;;1.38;1.20;;;24.40;59.00;;;;;;5080656;28;20191;-70
2022/08/10 13:07:35;;;;;;;1.30;1.20;;;24.40;59.30;;;;;;5114318;28;20219;-70
2022/08/10 13:10:23;;;;;;;1.25;1.20;;;24.40;59.10;;;;;;5079886;28;20192;-70
2022/08/10 13:12:55;;;;;;;2.15;1.20;;;24.40;59.20;;;;;;5080644;28;20180;-70
2022/08/10 13:15:29;;;;;;;1.15;1.15;;;24.40;58.90;;;;;;5097290;28;20295;-70
2022/08/10 13:18:01;;;;;;;1.15;1.15;;;24.40;58.80;;;;;;5114998;28;20207;-70
2022/08/10 13:20:36;;;;;;;1.73;1.20;;;24.40;58.90;;;;;;5115472;28;20179;-70
2022/08/10 13:23:14;;;;;;;1.20;1.20;;;24.50;59.00;;;;;;5097451;28;20203;-72
2022/08/10 13:25:47;;;;;;;1.77;1.27;;;24.40;58.90;;;;;;5097195;28;20187;-70
2022/08/10 13:28:23;;;;;;;1.27;1.17;;;24.40;59.20;;;;;;5115197;28;20263;-71
2022/08/10 13:30:51;;;;;;;1.13;1.13;;;24.40;59.00;;;;;;5096893;28;20219;-71
2022/08/10 13:33:24;;;;;;;1.10;1.10;;;24.40;59.20;;;;;;5097104;28;20180;-70
2022/08/10 13:35:56;;;;;;;2.05;1.20;;;24.40;59.20;;;;;;5080151;28;20306;-70
2022/08/10 13:38:25;;;;;;;1.67;1.30;;;24.40;59.10;;;;;;5114491;28;20192;-70